createdAt,value
2018-03-29T00:02:18.566Z,3.75
2018-03-29T00:04:46.636Z,4.62
2018-03-29T00:07:14.702Z,3.85
2018-03-29T00:09:42.752Z,3.80
2018-03-29T00:12:10.808Z,3.95
2018-03-29T00:14:38.877Z,3.97
2018-03-29T00:17:06.957Z,4.03
2018-03-29T00:19:34.982Z,3.95
2018-03-29T00:22:03.046Z,3.83
2018-03-29T00:24:31.090Z,3.55
2018-03-29T00:26:59.137Z,3.87
2018-03-29T00:29:27.247Z,4.00
2018-03-29T00:31:55.293Z,4.32
2018-03-29T00:34:24.088Z,3.95
2018-03-29T00:36:52.141Z,3.70
2018-03-29T00:39:20.251Z,3.87
2018-03-29T00:41:48.287Z,3.78
2018-03-29T00:44:16.339Z,3.70
2018-03-29T00:46:45.919Z,3.62
2018-03-29T00:49:13.977Z,3.72
2018-03-29T00:51:42.064Z,3.67
2018-03-29T00:54:10.101Z,3.78
2018-03-29T00:56:38.165Z,3.40
2018-03-29T00:59:06.213Z,3.33
2018-03-29T01:01:34.293Z,3.20
2018-03-29T01:04:02.342Z,3.53
2018-03-29T01:06:30.395Z,3.30
2018-03-29T01:08:58.437Z,3.65
2018-03-29T01:11:26.512Z,3.45
2018-03-29T01:13:54.619Z,3.50
2018-03-29T01:16:24.591Z,3.28
2018-03-29T01:18:55.942Z,3.67
2018-03-29T01:21:24.856Z,3.90
2018-03-29T01:24:02.836Z,3.60
2018-03-29T01:26:30.922Z,3.55
2018-03-29T01:28:58.970Z,3.58
2018-03-29T01:31:27.064Z,3.70
2018-03-29T01:33:58.743Z,3.97
2018-03-29T01:36:26.819Z,3.25
2018-03-29T01:38:54.878Z,3.50
2018-03-29T01:41:28.876Z,3.60
2018-03-29T01:43:56.936Z,3.30
2018-03-29T01:46:25.004Z,3.90
2018-03-29T01:48:53.077Z,3.53
2018-03-29T01:51:21.138Z,3.87
2018-03-29T01:53:49.183Z,3.30
2018-03-29T01:56:17.238Z,3.78
2018-03-29T01:58:45.294Z,3.80
2018-03-29T02:01:13.370Z,3.30
2018-03-29T02:03:41.435Z,3.70
2018-03-29T02:06:09.523Z,3.27
2018-03-29T02:08:37.581Z,3.40
2018-03-29T02:11:05.628Z,3.45
2018-03-29T02:13:33.678Z,3.12
2018-03-29T02:16:01.722Z,3.55
2018-03-29T02:18:29.950Z,3.70
2018-03-29T02:20:57.993Z,3.28
2018-03-29T02:23:26.046Z,3.40
2018-03-29T02:25:54.106Z,3.53
2018-03-29T02:28:22.159Z,3.15
2018-03-29T02:30:50.205Z,3.20
2018-03-29T02:33:18.262Z,3.53
2018-03-29T02:35:46.335Z,3.37
2018-03-29T02:38:15.166Z,3.33
2018-03-29T02:40:43.209Z,3.13
2018-03-29T02:43:11.273Z,3.00
2018-03-29T02:45:39.353Z,3.47
2018-03-29T02:48:07.406Z,2.65
2018-03-29T02:50:35.460Z,3.53
2018-03-29T02:53:03.503Z,3.00
2018-03-29T02:55:31.552Z,2.87
2018-03-29T02:57:59.608Z,3.33
2018-03-29T03:00:27.699Z,3.17
2018-03-29T03:02:56.040Z,3.28
2018-03-29T03:05:24.552Z,3.00
2018-03-29T03:07:52.659Z,2.90
2018-03-29T03:10:21.278Z,3.10
2018-03-29T03:12:49.376Z,2.70
2018-03-29T03:15:17.446Z,2.80
2018-03-29T03:17:45.680Z,3.13
2018-03-29T03:20:13.781Z,3.10
2018-03-29T03:22:41.851Z,2.77
2018-03-29T03:25:09.890Z,3.47
2018-03-29T03:27:38.318Z,3.17
2018-03-29T03:30:06.557Z,3.17
2018-03-29T03:32:34.670Z,2.70
2018-03-29T03:35:03.241Z,2.58
2018-03-29T03:37:31.368Z,2.70
2018-03-29T03:39:59.425Z,2.40
2018-03-29T03:42:27.466Z,2.20
2018-03-29T03:44:55.522Z,2.00
2018-03-29T03:47:23.563Z,1.80
2018-03-29T03:49:51.613Z,1.62
2018-03-29T03:52:19.672Z,1.73
2018-03-29T03:54:47.724Z,1.70
2018-03-29T03:57:15.947Z,1.70
2018-03-29T03:59:44.021Z,1.85
2018-03-29T04:02:12.068Z,1.67
2018-03-29T04:04:40.515Z,1.67
2018-03-29T04:07:08.621Z,1.75
2018-03-29T04:09:36.674Z,1.40
2018-03-29T04:12:04.738Z,1.52
2018-03-29T04:14:32.788Z,1.40
2018-03-29T04:17:01.020Z,1.60
2018-03-29T04:19:29.089Z,1.75
2018-03-29T04:21:57.130Z,2.70
2018-03-29T04:24:25.189Z,2.92
2018-03-29T04:26:54.052Z,2.83
2018-03-29T04:29:22.088Z,2.50
2018-03-29T04:31:50.154Z,2.37
2018-03-29T04:34:18.216Z,2.28
2018-03-29T04:36:46.269Z,2.10
2018-03-29T04:39:14.317Z,2.25
2018-03-29T04:41:42.378Z,1.95
2018-03-29T04:44:10.454Z,1.90
2018-03-29T04:46:38.512Z,2.12
2018-03-29T04:49:06.612Z,2.08
2018-03-29T04:51:34.667Z,2.20
2018-03-29T04:54:02.683Z,2.03
2018-03-29T04:56:30.723Z,2.22
2018-03-29T04:58:58.775Z,1.83
2018-03-29T05:01:26.872Z,2.10
2018-03-29T05:03:54.914Z,2.33
2018-03-29T05:06:23.018Z,2.17
2018-03-29T05:08:51.061Z,2.25
2018-03-29T05:11:19.146Z,2.15
2018-03-29T05:13:47.191Z,1.80
2018-03-29T05:16:15.269Z,1.60
2018-03-29T05:18:43.317Z,1.70
2018-03-29T05:21:11.380Z,1.70
2018-03-29T05:23:39.456Z,1.50
2018-03-29T05:26:07.497Z,1.62
2018-03-29T05:28:35.590Z,1.60
2018-03-29T05:31:03.654Z,1.55
2018-03-29T05:33:31.739Z,1.52
2018-03-29T05:36:00.596Z,1.45
2018-03-29T05:38:28.642Z,1.70
2018-03-29T05:40:56.782Z,2.03
2018-03-29T05:43:24.830Z,3.37
2018-03-29T05:45:54.400Z,3.33
2018-03-29T05:48:22.497Z,3.05
2018-03-29T05:50:50.566Z,2.80
2018-03-29T05:53:18.664Z,2.70
2018-03-29T05:55:47.498Z,3.00
2018-03-29T05:58:15.567Z,2.90
2018-03-29T06:00:43.671Z,3.50
2018-03-29T06:03:11.810Z,2.50
2018-03-29T06:05:39.828Z,2.33
2018-03-29T06:08:07.913Z,2.58
2018-03-29T06:10:36.022Z,2.78
2018-03-29T06:13:04.080Z,2.42
2018-03-29T06:15:32.898Z,3.10
2018-03-29T06:18:00.956Z,3.85
2018-03-29T06:20:29.037Z,4.72
2018-03-29T06:22:57.092Z,3.87
2018-03-29T06:25:25.191Z,3.40
2018-03-29T06:27:53.252Z,2.85
2018-03-29T06:30:21.331Z,2.78
2018-03-29T06:32:49.394Z,4.00
2018-03-29T06:35:17.446Z,3.78
2018-03-29T06:37:45.520Z,3.60
2018-03-29T06:40:13.583Z,3.15
2018-03-29T06:42:43.131Z,3.12
2018-03-29T06:45:11.182Z,3.15
2018-03-29T06:47:39.447Z,3.65
2018-03-29T06:50:07.511Z,3.70
2018-03-29T06:52:35.590Z,4.20
2018-03-29T06:55:03.669Z,4.70
2018-03-29T06:57:31.758Z,4.28
2018-03-29T06:59:59.829Z,4.40
2018-03-29T07:02:27.885Z,4.00
2018-03-29T07:04:55.955Z,4.85
2018-03-29T07:07:23.992Z,4.45
2018-03-29T07:09:52.035Z,4.50
2018-03-29T07:12:20.082Z,4.50
2018-03-29T07:14:48.141Z,4.87
2018-03-29T07:17:16.956Z,4.93
2018-03-29T07:19:45.021Z,4.65
2018-03-29T07:22:13.067Z,5.15
2018-03-29T07:24:41.100Z,4.62
2018-03-29T07:27:09.143Z,4.90
2018-03-29T07:29:37.199Z,5.20
2018-03-29T07:32:05.251Z,5.50
2018-03-29T07:34:33.300Z,5.37
2018-03-29T07:37:01.344Z,5.53
2018-03-29T07:39:29.400Z,5.40
2018-03-29T07:41:57.440Z,5.95
2018-03-29T07:44:25.518Z,5.43
2018-03-29T07:46:53.548Z,5.62
2018-03-29T07:49:21.604Z,5.53
2018-03-29T07:51:49.646Z,5.95
2018-03-29T07:54:17.689Z,5.90
2018-03-29T07:56:45.756Z,6.43
2018-03-29T07:59:13.802Z,5.40
2018-03-29T08:01:41.856Z,6.07
2018-03-29T08:04:09.900Z,6.22
2018-03-29T08:06:37.946Z,5.65
2018-03-29T08:09:06.014Z,6.35
2018-03-29T08:11:34.046Z,6.05
2018-03-29T08:14:02.102Z,6.15
2018-03-29T08:16:30.150Z,6.22
2018-03-29T08:18:58.179Z,6.40
2018-03-29T08:21:26.260Z,6.03
2018-03-29T08:23:54.338Z,6.55
2018-03-29T08:26:22.384Z,6.43
2018-03-29T08:28:50.856Z,6.37
2018-03-29T08:31:18.916Z,6.07
2018-03-29T08:33:46.981Z,6.72
2018-03-29T08:36:15.987Z,6.85
2018-03-29T08:38:44.786Z,6.25
2018-03-29T08:41:12.849Z,6.65
2018-03-29T08:43:40.906Z,6.72
2018-03-29T08:46:08.967Z,7.20
2018-03-29T08:48:37.033Z,6.22
2018-03-29T08:51:05.359Z,6.47
2018-03-29T08:53:33.442Z,7.00
2018-03-29T08:56:01.463Z,6.43
2018-03-29T08:58:29.774Z,6.93
2018-03-29T09:00:57.828Z,6.72
2018-03-29T09:03:25.874Z,7.00
2018-03-29T09:05:53.931Z,6.45
2018-03-29T09:08:21.960Z,6.70
2018-03-29T09:10:50.041Z,6.70
2018-03-29T09:13:18.105Z,6.97
2018-03-29T09:15:46.490Z,6.60
2018-03-29T09:18:14.560Z,7.05
2018-03-29T09:20:42.621Z,7.07
2018-03-29T09:23:10.669Z,6.62
2018-03-29T09:25:38.723Z,7.03
2018-03-29T09:28:08.291Z,7.22
2018-03-29T09:30:36.335Z,7.05
2018-03-29T09:33:04.410Z,6.85
2018-03-29T09:35:32.430Z,7.07
2018-03-29T09:38:00.489Z,6.60
2018-03-29T09:40:28.529Z,7.22
2018-03-29T09:42:56.562Z,7.18
2018-03-29T09:45:24.606Z,6.93
2018-03-29T09:47:52.682Z,7.30
2018-03-29T09:50:20.742Z,6.90
2018-03-29T09:52:48.800Z,7.30
2018-03-29T09:55:16.856Z,7.12
2018-03-29T09:57:45.006Z,8.18
2018-03-29T10:00:13.851Z,8.75
2018-03-29T10:02:47.236Z,9.52
2018-03-29T10:05:15.287Z,9.35
2018-03-29T10:07:43.345Z,7.60
2018-03-29T10:10:11.400Z,7.62
2018-03-29T10:12:39.507Z,7.43
2018-03-29T10:15:07.550Z,5.40
2018-03-29T10:17:37.115Z,6.78
2018-03-29T10:20:05.146Z,8.02
2018-03-29T10:22:33.231Z,7.00
2018-03-29T10:25:01.311Z,8.52
2018-03-29T10:27:29.388Z,10.68
2018-03-29T10:29:57.444Z,11.73
2018-03-29T10:32:25.532Z,17.95
2018-03-29T10:34:53.625Z,19.92
2018-03-29T10:37:21.689Z,15.43
2018-03-29T10:39:49.761Z,10.52
2018-03-29T10:42:17.835Z,9.90
2018-03-29T10:44:45.895Z,10.02
2018-03-29T10:47:13.943Z,10.32
2018-03-29T10:49:42.824Z,10.05
2018-03-29T10:52:10.900Z,9.10
2018-03-29T10:54:38.961Z,16.73
2018-03-29T10:57:06.998Z,17.75
2018-03-29T10:59:35.059Z,16.85
2018-03-29T11:02:03.191Z,14.87
2018-03-29T11:04:31.263Z,12.80
2018-03-29T11:06:59.325Z,12.25
2018-03-29T11:09:27.392Z,10.63
2018-03-29T11:11:55.437Z,10.02
2018-03-29T11:14:23.499Z,9.73
2018-03-29T11:16:51.558Z,8.93
2018-03-29T11:19:19.621Z,9.65
2018-03-29T11:21:47.683Z,9.00
2018-03-29T11:24:16.496Z,10.23
2018-03-29T11:26:44.552Z,9.77
2018-03-29T11:29:12.606Z,10.00
2018-03-29T11:31:40.658Z,9.23
2018-03-29T11:34:08.710Z,9.30
2018-03-29T11:36:36.750Z,9.23
2018-03-29T11:39:04.821Z,9.25
2018-03-29T11:41:32.912Z,9.02
2018-03-29T11:44:00.986Z,9.65
2018-03-29T11:46:29.054Z,10.15
2018-03-29T11:48:57.112Z,9.05
2018-03-29T11:51:25.233Z,9.13
2018-03-29T11:53:53.292Z,8.57
2018-03-29T11:56:21.370Z,8.93
2018-03-29T11:58:49.427Z,8.52
2018-03-29T12:01:17.513Z,8.65
2018-03-29T12:03:45.558Z,9.05
2018-03-29T12:06:14.395Z,8.80
2018-03-29T12:08:42.442Z,9.30
2018-03-29T12:11:11.272Z,8.82
2018-03-29T12:13:39.326Z,8.82
2018-03-29T12:16:07.382Z,9.00
2018-03-29T12:18:35.482Z,8.40
2018-03-29T12:21:03.535Z,8.90
2018-03-29T12:23:33.105Z,8.95
2018-03-29T12:26:01.174Z,8.25
2018-03-29T12:28:29.233Z,6.47
2018-03-29T12:30:57.295Z,6.75
2018-03-29T12:33:25.354Z,8.00
2018-03-29T12:35:53.413Z,7.70
2018-03-29T12:38:21.435Z,7.90
2018-03-29T12:40:49.497Z,7.65
2018-03-29T12:43:17.545Z,8.27
2018-03-29T12:45:46.373Z,7.78
2018-03-29T12:48:14.457Z,8.68
2018-03-29T12:50:42.503Z,7.68
2018-03-29T12:53:10.571Z,8.00
2018-03-29T12:55:38.725Z,8.25
2018-03-29T12:58:06.794Z,8.07
2018-03-29T13:00:35.616Z,8.10
2018-03-29T13:03:03.673Z,8.32
2018-03-29T13:05:31.787Z,8.00
2018-03-29T13:07:59.856Z,8.05
2018-03-29T13:10:27.912Z,8.32
2018-03-29T13:12:55.983Z,8.00
2018-03-29T13:15:24.053Z,7.82
2018-03-29T13:17:52.330Z,8.43
2018-03-29T13:20:20.409Z,8.20
2018-03-29T13:22:48.477Z,7.90
2018-03-29T13:25:16.597Z,8.38
2018-03-29T13:27:44.677Z,8.18
2018-03-29T13:30:12.734Z,8.35
2018-03-29T13:32:40.816Z,8.13
2018-03-29T13:35:08.906Z,7.90
2018-03-29T13:37:37.752Z,8.27
2018-03-29T13:40:05.803Z,8.02
2018-03-29T13:42:33.870Z,7.78
2018-03-29T13:45:01.949Z,7.43
2018-03-29T13:47:30.004Z,8.23
2018-03-29T13:49:58.034Z,8.35
2018-03-29T13:52:26.070Z,8.40
2018-03-29T13:54:54.150Z,8.50
2018-03-29T13:57:22.236Z,8.15
2018-03-29T13:59:50.311Z,8.48
2018-03-29T14:02:18.354Z,8.00
2018-03-29T14:04:46.405Z,8.20
2018-03-29T14:07:14.461Z,7.62
2018-03-29T14:09:43.300Z,7.95
2018-03-29T14:12:11.332Z,7.93
2018-03-29T14:14:39.426Z,8.45
2018-03-29T14:17:07.870Z,7.57
2018-03-29T14:19:35.932Z,8.02
2018-03-29T14:22:05.488Z,7.90
2018-03-29T14:24:33.574Z,7.50
2018-03-29T14:27:01.666Z,8.02
2018-03-29T14:29:29.709Z,8.63
2018-03-29T14:31:57.785Z,7.68
2018-03-29T14:34:25.831Z,8.02
2018-03-29T14:36:53.877Z,7.50
2018-03-29T14:39:21.931Z,7.93
2018-03-29T14:41:50.006Z,7.55
2018-03-29T14:44:18.087Z,5.40
2018-03-29T14:46:46.157Z,5.18
2018-03-29T14:49:14.204Z,5.85
2018-03-29T14:51:42.279Z,6.60
2018-03-29T14:54:11.859Z,7.03
2018-03-29T14:56:39.914Z,7.03
2018-03-29T14:59:07.995Z,6.95
2018-03-29T15:01:36.021Z,6.37
2018-03-29T15:04:04.073Z,7.87
2018-03-29T15:06:32.114Z,6.60
2018-03-29T15:09:00.152Z,7.07
2018-03-29T15:11:28.985Z,7.32
2018-03-29T15:13:57.170Z,7.30
2018-03-29T15:16:25.109Z,7.18
2018-03-29T15:18:53.152Z,7.78
2018-03-29T15:21:21.222Z,7.15
2018-03-29T15:23:49.276Z,7.40
2018-03-29T15:26:17.329Z,7.30
2018-03-29T15:28:45.453Z,7.10
2018-03-29T15:31:13.500Z,6.97
2018-03-29T15:33:41.594Z,7.45
2018-03-29T15:36:09.657Z,7.97
2018-03-29T15:38:37.706Z,7.85
2018-03-29T15:41:05.791Z,8.27
2018-03-29T15:43:35.368Z,7.68
2018-03-29T15:46:03.447Z,7.55
2018-03-29T15:48:31.613Z,7.90
2018-03-29T15:50:59.667Z,7.87
2018-03-29T15:53:27.740Z,7.22
2018-03-29T15:55:55.815Z,7.62
2018-03-29T15:58:23.871Z,7.28
2018-03-29T16:00:51.937Z,7.62
2018-03-29T16:03:20.798Z,7.28
2018-03-29T16:05:48.866Z,7.12
2018-03-29T16:08:16.935Z,7.80
2018-03-29T16:10:45.033Z,7.50
2018-03-29T16:13:13.921Z,7.45
2018-03-29T16:15:41.960Z,7.68
2018-03-29T16:18:10.053Z,7.10
2018-03-29T16:20:38.133Z,6.65
2018-03-29T16:23:07.025Z,6.78
2018-03-29T16:25:35.086Z,7.18
2018-03-29T16:28:03.178Z,6.78
2018-03-29T16:30:31.263Z,6.78
2018-03-29T16:33:00.093Z,6.50
2018-03-29T16:35:28.147Z,7.10
2018-03-29T16:37:56.216Z,6.70
2018-03-29T16:40:24.273Z,6.95
2018-03-29T16:42:52.539Z,6.97
2018-03-29T16:45:20.647Z,7.03
2018-03-29T16:47:48.703Z,6.82
2018-03-29T16:50:16.771Z,7.15
2018-03-29T16:52:44.832Z,7.22
2018-03-29T16:55:12.947Z,7.32
2018-03-29T16:57:41.018Z,7.20
2018-03-29T17:00:09.072Z,7.22
2018-03-29T17:02:37.114Z,7.15
2018-03-29T17:05:05.220Z,7.32
2018-03-29T17:07:33.291Z,7.53
2018-03-29T17:10:01.344Z,7.80
2018-03-29T17:12:29.417Z,7.57
2018-03-29T17:14:57.445Z,7.82
2018-03-29T17:17:25.508Z,7.18
2018-03-29T17:19:53.546Z,7.97
2018-03-29T17:22:22.368Z,7.15
2018-03-29T17:24:50.432Z,7.57
2018-03-29T17:27:18.473Z,8.25
2018-03-29T17:29:46.540Z,7.32
2018-03-29T17:32:14.618Z,6.78
2018-03-29T17:34:42.674Z,7.00
2018-03-29T17:37:10.714Z,6.37
2018-03-29T17:39:38.782Z,6.75
2018-03-29T17:42:06.858Z,7.07
2018-03-29T17:44:34.974Z,7.32
2018-03-29T17:47:03.247Z,7.72
2018-03-29T17:49:31.326Z,6.95
2018-03-29T17:51:59.408Z,7.10
2018-03-29T17:54:27.547Z,7.05
2018-03-29T17:56:55.581Z,7.32
2018-03-29T17:59:23.664Z,7.35
2018-03-29T18:01:51.743Z,7.45
2018-03-29T18:04:19.823Z,6.97
2018-03-29T18:06:47.875Z,7.50
2018-03-29T18:09:15.933Z,7.07
2018-03-29T18:11:44.006Z,6.80
2018-03-29T18:14:12.061Z,7.50
2018-03-29T18:16:40.118Z,7.32
2018-03-29T18:19:08.196Z,6.43
2018-03-29T18:21:36.265Z,6.35
2018-03-29T18:24:04.319Z,6.40
2018-03-29T18:26:32.411Z,6.45
2018-03-29T18:29:00.573Z,6.32
2018-03-29T18:31:28.629Z,6.75
2018-03-29T18:33:56.696Z,6.70
2018-03-29T18:36:24.756Z,6.57
2018-03-29T18:38:53.636Z,6.70
2018-03-29T18:41:21.705Z,6.97
2018-03-29T18:43:49.768Z,6.15
2018-03-29T18:46:17.819Z,7.55
2018-03-29T18:48:45.873Z,6.40
2018-03-29T18:51:13.944Z,5.95
2018-03-29T18:53:42.047Z,5.60
2018-03-29T18:56:10.164Z,4.53
2018-03-29T18:58:38.235Z,3.72
2018-03-29T19:01:06.307Z,5.10
2018-03-29T19:03:34.371Z,5.87
2018-03-29T19:06:02.439Z,4.75
2018-03-29T19:08:30.864Z,6.22
2018-03-29T19:10:58.965Z,5.60
2018-03-29T19:13:27.081Z,5.72
2018-03-29T19:15:55.222Z,5.70
2018-03-29T19:18:23.298Z,6.25
2018-03-29T19:20:51.348Z,6.32
2018-03-29T19:23:20.195Z,5.70
2018-03-29T19:25:48.274Z,5.75
2018-03-29T19:28:17.125Z,5.93
2018-03-29T19:30:45.198Z,6.28
2018-03-29T19:33:13.253Z,6.15
2018-03-29T19:35:42.326Z,6.90
2018-03-29T19:38:10.395Z,6.90
2018-03-29T19:40:38.480Z,6.30
2018-03-29T19:43:06.578Z,6.68
2018-03-29T19:45:34.650Z,6.82
2018-03-29T19:48:02.732Z,6.37
2018-03-29T19:50:30.805Z,7.30
2018-03-29T19:52:58.866Z,6.20
2018-03-29T19:55:26.945Z,6.57
2018-03-29T19:57:55.030Z,6.93
2018-03-29T20:00:23.122Z,6.70
2018-03-29T20:02:51.192Z,6.95
2018-03-29T20:05:20.058Z,6.57
2018-03-29T20:07:48.101Z,7.10
2018-03-29T20:10:16.189Z,7.85
2018-03-29T20:12:44.288Z,7.50
2018-03-29T20:15:12.326Z,7.50
2018-03-29T20:17:40.424Z,7.65
2018-03-29T20:20:08.496Z,7.37
2018-03-29T20:22:36.551Z,7.65
2018-03-29T20:25:04.619Z,7.55
2018-03-29T20:27:32.709Z,7.32
2018-03-29T20:30:00.743Z,6.47
2018-03-29T20:32:28.822Z,7.12
2018-03-29T20:34:57.131Z,7.68
2018-03-29T20:37:25.559Z,7.65
2018-03-29T20:39:53.614Z,8.20
2018-03-29T20:42:21.675Z,8.15
2018-03-29T20:44:49.743Z,7.72
2018-03-29T20:47:17.864Z,7.22
2018-03-29T20:49:45.933Z,7.15
2018-03-29T20:52:14.009Z,7.68
2018-03-29T20:54:42.057Z,7.37
2018-03-29T20:57:10.110Z,7.30
2018-03-29T20:59:38.208Z,7.18
2018-03-29T21:02:06.255Z,7.10
2018-03-29T21:04:34.283Z,6.93
2018-03-29T21:07:02.368Z,6.85
2018-03-29T21:09:30.757Z,6.75
2018-03-29T21:11:58.833Z,6.70
2018-03-29T21:14:26.985Z,6.47
2018-03-29T21:16:54.964Z,6.28
2018-03-29T21:19:23.029Z,6.75
2018-03-29T21:21:51.057Z,5.93
2018-03-29T21:24:19.141Z,5.85
2018-03-29T21:26:47.244Z,5.97
2018-03-29T21:29:15.266Z,5.95
2018-03-29T21:31:43.367Z,5.62
2018-03-29T21:34:11.417Z,6.05
2018-03-29T21:36:39.604Z,6.07
2018-03-29T21:39:07.786Z,5.25
2018-03-29T21:41:35.856Z,5.60
2018-03-29T21:44:04.690Z,5.50
2018-03-29T21:46:32.762Z,5.22
2018-03-29T21:49:00.888Z,5.62
2018-03-29T21:51:28.966Z,5.10
2018-03-29T21:53:57.023Z,5.18
2018-03-29T21:56:25.091Z,5.15
2018-03-29T21:58:53.165Z,5.00
2018-03-29T22:01:21.258Z,4.55
2018-03-29T22:03:49.361Z,5.37
2018-03-29T22:06:17.425Z,4.70
2018-03-29T22:08:45.486Z,4.87
2018-03-29T22:11:13.535Z,4.93
2018-03-29T22:13:41.609Z,4.87
2018-03-29T22:16:09.655Z,4.85
2018-03-29T22:18:38.011Z,4.80
2018-03-29T22:21:06.092Z,4.70
2018-03-29T22:23:34.165Z,4.75
2018-03-29T22:26:02.246Z,4.65
2018-03-29T22:28:30.309Z,4.47
2018-03-29T22:30:58.361Z,4.28
2018-03-29T22:33:26.405Z,4.75
2018-03-29T22:35:54.453Z,4.60
2018-03-29T22:38:22.573Z,4.30
2018-03-29T22:40:50.605Z,3.92
2018-03-29T22:43:19.026Z,4.30
2018-03-29T22:45:47.089Z,3.92
2018-03-29T22:48:15.122Z,4.10
2018-03-29T22:50:43.202Z,3.50
2018-03-29T22:53:11.223Z,4.00
2018-03-29T22:55:39.303Z,4.28
2018-03-29T22:58:07.358Z,3.53
2018-03-29T23:00:35.425Z,3.72
2018-03-29T23:03:03.532Z,3.67
2018-03-29T23:05:31.607Z,3.47
2018-03-29T23:07:59.658Z,3.78
2018-03-29T23:10:27.714Z,3.37
2018-03-29T23:12:55.801Z,4.20
2018-03-29T23:15:23.886Z,3.83
2018-03-29T23:17:51.952Z,3.08
2018-03-29T23:20:19.996Z,3.30
2018-03-29T23:22:48.024Z,3.15
2018-03-29T23:25:16.098Z,3.37
2018-03-29T23:27:44.168Z,3.35
2018-03-29T23:30:12.263Z,2.92
2018-03-29T23:32:40.334Z,3.55
2018-03-29T23:35:08.394Z,3.28
2018-03-29T23:37:37.225Z,3.15
2018-03-29T23:40:05.304Z,3.30
2018-03-29T23:42:33.336Z,3.30
2018-03-29T23:45:01.392Z,3.30
2018-03-29T23:47:29.463Z,3.10
2018-03-29T23:49:57.503Z,2.80
2018-03-29T23:52:25.579Z,3.50
2018-03-29T23:54:53.634Z,3.12
2018-03-29T23:57:21.684Z,3.20
2018-03-29T23:59:49.753Z,3.00
